createdAt,value
2018-09-05T00:00:14.830Z,96.84
2018-09-05T00:01:14.667Z,96.84
2018-09-05T00:02:14.657Z,96.84
2018-09-05T00:03:14.593Z,96.66
2018-09-05T00:04:14.627Z,96.56
2018-09-05T00:05:15.021Z,95.89
2018-09-05T00:06:14.625Z,95.89
2018-09-05T00:07:14.589Z,96.18
2018-09-05T00:08:14.570Z,96.18
2018-09-05T00:09:14.508Z,95.89
2018-09-05T00:10:14.541Z,95.89
2018-09-05T00:11:14.826Z,95.98
2018-09-05T00:12:14.510Z,96.08
2018-09-05T00:13:14.744Z,95.51
2018-09-05T00:14:14.516Z,95.70
2018-09-05T00:15:14.470Z,95.94
2018-09-05T00:16:14.452Z,96.42
2018-09-05T00:18:14.720Z,96.75
2018-09-05T00:19:14.365Z,95.65
2018-09-05T00:20:14.389Z,95.84
2018-09-05T00:21:14.377Z,95.75
2018-09-05T00:22:14.365Z,95.79
2018-09-05T00:23:14.302Z,95.75
2018-09-05T00:24:14.637Z,95.56
2018-09-05T00:25:14.272Z,95.56
2018-09-05T00:26:14.407Z,95.17
2018-09-05T00:27:14.316Z,95.56
2018-09-05T00:30:14.603Z,95.46
2018-09-05T00:31:14.256Z,95.84
2018-09-05T00:32:14.260Z,95.36
2018-09-05T00:33:14.203Z,95.36
2018-09-05T00:34:14.241Z,94.79
2018-09-05T00:35:14.176Z,94.98
2018-09-05T00:36:14.586Z,94.79
2018-09-05T00:37:14.198Z,95.07
2018-09-05T00:38:14.081Z,95.27
2018-09-05T00:39:14.062Z,94.46
2018-09-05T00:40:14.096Z,94.50
2018-09-05T00:41:14.084Z,95.27
2018-09-05T00:42:14.192Z,94.98
2018-09-05T00:44:14.339Z,94.79
2018-09-05T00:45:14.023Z,95.27
2018-09-05T00:46:14.014Z,95.56
2018-09-05T00:47:14.001Z,95.70
2018-09-05T00:49:13.967Z,95.36
2018-09-05T00:50:13.954Z,95.22
2018-09-05T00:51:14.233Z,95.27
2018-09-05T00:52:13.969Z,94.84
2018-09-05T00:53:13.855Z,95.51
2018-09-05T00:54:13.839Z,94.84
2018-09-05T00:55:13.926Z,94.55
2018-09-05T00:57:13.802Z,95.51
2018-09-05T00:58:14.339Z,95.51
2018-09-05T00:59:13.946Z,94.84
2018-09-05T01:00:13.798Z,95.51
2018-09-05T01:01:13.768Z,95.32
2018-09-05T01:02:13.723Z,95.22
2018-09-05T01:03:13.710Z,95.22
2018-09-05T01:04:13.743Z,95.61
2018-09-05T01:05:14.026Z,94.74
2018-09-05T01:06:13.673Z,94.65
2018-09-05T01:07:13.648Z,94.74
2018-09-05T01:08:13.686Z,94.65
2018-09-05T01:09:13.619Z,94.79
2018-09-05T01:10:13.650Z,94.41
2018-09-05T01:11:13.637Z,94.41
2018-09-05T01:12:13.916Z,94.60
2018-09-05T01:13:13.555Z,94.31
2018-09-05T01:14:13.539Z,93.45
2018-09-05T01:15:13.521Z,93.65
2018-09-05T01:16:13.557Z,93.93
2018-09-05T01:17:13.549Z,93.74
2018-09-05T01:18:13.535Z,93.16
2018-09-05T01:19:13.813Z,93.36
2018-09-05T01:20:13.446Z,92.97
2018-09-05T01:21:13.482Z,93.41
2018-09-05T01:22:13.467Z,93.45
2018-09-05T01:23:13.452Z,93.45
2018-09-05T01:24:13.478Z,93.93
2018-09-05T01:25:13.417Z,93.93
2018-09-05T01:26:13.707Z,94.12
2018-09-05T01:27:13.389Z,93.55
2018-09-05T01:30:13.341Z,94.41
2018-09-05T01:31:13.327Z,94.22
2018-09-05T01:32:13.610Z,94.12
2018-09-05T01:33:13.293Z,94.98
2018-09-05T01:34:13.229Z,94.70
2018-09-05T01:35:13.274Z,94.17
2018-09-05T01:36:13.248Z,94.36
2018-09-05T01:37:13.232Z,93.79
2018-09-05T01:38:13.518Z,93.98
2018-09-05T01:39:13.154Z,93.70
2018-09-05T01:40:13.140Z,93.88
2018-09-05T01:41:13.145Z,93.41
2018-09-05T01:42:13.156Z,92.83
2018-09-05T01:43:13.494Z,93.02
2018-09-05T01:44:13.426Z,92.93
2018-09-05T01:45:13.064Z,93.70
2018-09-05T01:46:13.045Z,93.21
2018-09-05T01:47:13.027Z,92.83
2018-09-05T01:48:13.058Z,92.64
2018-09-05T01:49:13.050Z,92.64
2018-09-05T01:50:13.339Z,92.69
2018-09-05T01:51:13.020Z,92.41
2018-09-05T01:52:13.001Z,92.50
2018-09-05T01:54:12.965Z,92.41
2018-09-05T01:55:12.905Z,92.60
2018-09-05T01:56:13.238Z,92.41
2018-09-05T01:57:13.018Z,92.41
2018-09-05T01:58:12.955Z,92.79
2018-09-05T01:59:12.883Z,92.41
2018-09-05T02:00:12.841Z,92.79
2018-09-05T02:01:12.863Z,92.41
2018-09-05T02:02:13.187Z,92.79
2018-09-05T02:03:12.775Z,92.88
2018-09-05T02:04:12.807Z,92.97
2018-09-05T02:05:12.789Z,92.50
2018-09-05T02:06:12.777Z,92.88
2018-09-05T02:07:13.013Z,92.69
2018-09-05T02:08:13.042Z,92.88
2018-09-05T02:09:12.726Z,92.50
2018-09-05T02:10:12.736Z,93.07
2018-09-05T02:11:12.696Z,92.79
2018-09-05T02:12:12.681Z,93.26
2018-09-05T02:13:12.673Z,93.46
2018-09-05T02:14:12.651Z,93.17
2018-09-05T02:15:12.990Z,93.46
2018-09-05T02:16:12.571Z,93.65
2018-09-05T02:17:12.597Z,93.65
2018-09-05T02:18:12.536Z,93.84
2018-09-05T02:19:12.514Z,94.31
2018-09-05T02:20:12.546Z,94.12
2018-09-05T02:21:12.557Z,93.93
2018-09-05T02:22:12.823Z,93.55
2018-09-05T02:23:12.499Z,93.55
2018-09-05T02:26:12.404Z,93.74
2018-09-05T02:27:12.514Z,94.03
2018-09-05T02:28:12.486Z,94.22
2018-09-05T02:29:12.811Z,93.93
2018-09-05T02:30:12.515Z,93.65
2018-09-05T02:31:12.331Z,94.31
2018-09-05T02:32:12.320Z,94.31
2018-09-05T02:33:12.340Z,94.41
2018-09-05T02:34:12.335Z,93.93
2018-09-05T02:35:12.306Z,94.03
2018-09-05T02:36:12.594Z,94.22
2018-09-05T02:37:12.286Z,93.84
2018-09-05T02:39:12.243Z,93.65
2018-09-05T02:40:12.278Z,94.12
2018-09-05T02:42:12.144Z,94.41
2018-09-05T02:43:12.482Z,94.22
2018-09-05T02:44:12.123Z,94.31
2018-09-05T02:45:12.102Z,94.12
2018-09-05T02:46:12.181Z,94.31
2018-09-05T02:47:12.067Z,94.41
2018-09-05T02:48:12.060Z,94.03
2018-09-05T02:49:12.037Z,94.22
2018-09-05T02:50:12.367Z,94.12
2018-09-05T02:51:12.000Z,94.22
2018-09-05T02:52:12.035Z,94.03
2018-09-05T02:53:12.016Z,94.12
2018-09-05T02:54:11.953Z,93.84
2018-09-05T02:55:11.983Z,93.55
2018-09-05T02:56:11.968Z,93.55
2018-09-05T02:58:12.243Z,93.46
2018-09-05T03:01:11.833Z,93.74
2018-09-05T03:02:11.870Z,94.31
2018-09-05T03:04:12.143Z,93.41
2018-09-05T03:05:11.829Z,94.07
2018-09-05T03:06:11.753Z,93.98
2018-09-05T03:07:11.944Z,93.93
2018-09-05T03:08:11.772Z,94.17
2018-09-05T03:09:11.725Z,93.46
2018-09-05T03:10:12.041Z,93.88
2018-09-05T03:11:11.674Z,94.07
2018-09-05T03:12:11.758Z,93.79
2018-09-05T03:14:11.770Z,93.70
2018-09-05T03:15:11.783Z,93.51
2018-09-05T03:16:12.026Z,93.70
2018-09-05T03:17:11.734Z,93.70
2018-09-05T03:18:11.607Z,93.60
2018-09-05T03:19:11.548Z,93.22
2018-09-05T03:20:11.573Z,93.02
2018-09-05T03:21:11.562Z,93.51
2018-09-05T03:22:11.848Z,93.51
2018-09-05T03:23:11.533Z,93.88
2018-09-05T03:24:11.491Z,93.98
2018-09-05T03:25:11.449Z,93.79
2018-09-05T03:26:11.478Z,93.79
2018-09-05T03:27:11.460Z,93.70
2018-09-05T03:28:11.747Z,93.51
2018-09-05T03:29:11.428Z,93.79
2018-09-05T03:31:11.346Z,94.17
2018-09-05T03:32:11.470Z,94.17
2018-09-05T03:33:11.431Z,94.17
2018-09-05T03:34:11.651Z,93.79
2018-09-05T03:35:11.335Z,93.98
2018-09-05T03:36:11.315Z,93.88
2018-09-05T03:37:11.302Z,93.79
2018-09-05T03:38:11.282Z,93.98
2018-09-05T03:39:11.266Z,93.60
2018-09-05T03:40:11.206Z,93.60
2018-09-05T03:41:11.884Z,93.74
2018-09-05T03:42:11.215Z,93.70
2018-09-05T03:43:11.202Z,93.98
2018-09-05T03:44:11.184Z,93.93
2018-09-05T03:45:11.468Z,93.93
2018-09-05T03:46:11.508Z,93.55
2018-09-05T03:47:11.087Z,93.70
2018-09-05T03:48:11.426Z,94.12
2018-09-05T03:49:11.105Z,93.93
2018-09-05T03:50:11.087Z,94.12
2018-09-05T03:51:11.637Z,94.12
2018-09-05T03:52:11.064Z,94.17
2018-09-05T03:53:11.040Z,93.31
2018-09-05T03:54:11.019Z,93.98
2018-09-05T03:55:11.364Z,93.88
2018-09-05T03:56:11.097Z,92.98
2018-09-05T03:57:10.914Z,93.17
2018-09-05T03:58:10.960Z,92.41
2018-09-05T04:01:11.203Z,91.93
2018-09-05T04:03:10.919Z,91.64
2018-09-05T04:05:10.886Z,91.64
2018-09-05T04:07:11.102Z,91.50
2018-09-05T04:09:10.816Z,91.69
2018-09-05T04:10:10.746Z,91.41
2018-09-05T04:11:10.836Z,92.46
2018-09-05T04:12:11.138Z,92.46
2018-09-05T04:13:11.281Z,92.46
2018-09-05T04:14:10.992Z,91.69
2018-09-05T04:15:10.762Z,92.07
2018-09-05T04:16:10.651Z,92.21
2018-09-05T04:17:10.693Z,91.60
2018-09-05T04:19:10.553Z,92.26
2018-09-05T04:20:10.533Z,92.26
2018-09-05T04:21:10.869Z,92.26
2018-09-05T04:22:10.708Z,92.21
2018-09-05T04:23:10.570Z,92.17
2018-09-05T04:24:10.874Z,92.36
2018-09-05T04:25:11.160Z,92.65
2018-09-05T04:26:11.049Z,92.65
2018-09-05T04:27:10.958Z,92.65
2018-09-05T04:28:10.597Z,92.26
2018-09-05T04:29:10.442Z,92.26
2018-09-05T04:30:10.421Z,92.31
2018-09-05T04:31:10.360Z,92.17
2018-09-05T04:32:10.405Z,92.60
2018-09-05T04:33:10.668Z,91.64
2018-09-05T04:34:10.302Z,91.74
2018-09-05T04:35:10.340Z,91.45
2018-09-05T04:36:10.368Z,91.45
2018-09-05T04:37:10.265Z,91.64
2018-09-05T04:38:10.283Z,91.78
2018-09-05T04:39:10.566Z,91.36
2018-09-05T04:40:10.202Z,91.40
2018-09-05T04:42:10.375Z,91.21
2018-09-05T04:43:10.204Z,91.02
2018-09-05T04:44:10.186Z,91.21
2018-09-05T04:45:10.571Z,91.30
2018-09-05T04:46:10.112Z,91.21
2018-09-05T04:47:10.235Z,91.30
2018-09-05T04:48:10.129Z,91.30
2018-09-05T04:49:10.110Z,90.88
2018-09-05T04:50:10.099Z,90.83
2018-09-05T04:51:10.377Z,91.02
2018-09-05T04:52:10.012Z,91.21
2018-09-05T04:53:10.094Z,91.06
2018-09-05T04:54:10.124Z,91.06
2018-09-05T04:55:10.019Z,91.02
2018-09-05T04:56:11.527Z,91.11
2018-09-05T04:57:10.488Z,91.16
2018-09-05T04:58:10.087Z,91.02
2018-09-05T05:00:13.126Z,90.92
2018-09-05T05:01:10.057Z,90.97
2018-09-05T05:02:13.681Z,90.83
2018-09-05T05:04:10.354Z,90.88
2018-09-05T05:05:10.015Z,90.88
2018-09-05T05:06:10.908Z,90.97
2018-09-05T05:07:10.093Z,90.97
2018-09-05T05:08:09.815Z,90.88
2018-09-05T05:09:09.788Z,90.78
2018-09-05T05:10:09.821Z,91.06
2018-09-05T05:11:10.011Z,90.97
2018-09-05T05:12:09.692Z,90.97
2018-09-05T05:13:09.721Z,90.97
2018-09-05T05:14:09.707Z,91.06
2018-09-05T05:15:09.711Z,90.88
2018-09-05T05:16:09.627Z,91.16
2018-09-05T05:17:09.676Z,91.16
2018-09-05T05:18:09.944Z,91.25
2018-09-05T05:19:09.733Z,90.97
2018-09-05T05:20:09.618Z,90.97
2018-09-05T05:21:09.595Z,90.88
2018-09-05T05:22:09.579Z,90.97
2018-09-05T05:23:09.566Z,91.06
2018-09-05T05:24:09.507Z,90.97
2018-09-05T05:25:09.835Z,91.25
2018-09-05T05:26:09.522Z,90.39
2018-09-05T05:27:09.516Z,90.92
2018-09-05T05:28:09.590Z,91.30
2018-09-05T05:29:09.476Z,90.63
2018-09-05T05:30:09.455Z,90.63
2018-09-05T05:31:09.441Z,90.73
2018-09-05T05:32:09.727Z,90.53
2018-09-05T05:33:09.369Z,90.44
2018-09-05T05:34:09.642Z,90.73
2018-09-05T05:35:09.539Z,90.44
2018-09-05T05:36:10.015Z,90.16
2018-09-05T05:37:09.389Z,90.44
2018-09-05T05:38:09.892Z,90.25
2018-09-05T05:39:09.569Z,90.44
2018-09-05T05:40:09.342Z,90.25
2018-09-05T05:41:09.297Z,90.44
2018-09-05T05:42:09.279Z,90.16
2018-09-05T05:43:09.261Z,90.63
2018-09-05T05:44:09.319Z,90.34
2018-09-05T05:45:09.187Z,90.16
2018-09-05T05:46:09.521Z,90.34
2018-09-05T05:47:09.205Z,90.25
2018-09-05T05:48:09.187Z,90.44
2018-09-05T05:49:09.167Z,90.34
2018-09-05T05:50:09.107Z,90.25
2018-09-05T05:51:09.146Z,90.16
2018-09-05T05:52:14.193Z,90.16
2018-09-05T05:53:09.409Z,90.06
2018-09-05T05:54:09.097Z,89.96
2018-09-05T05:55:09.133Z,90.34
2018-09-05T05:56:09.067Z,90.20
2018-09-05T05:57:09.051Z,89.91
2018-09-05T05:58:08.988Z,90.01
2018-09-05T05:59:09.322Z,89.77
2018-09-05T06:00:08.964Z,89.72
2018-09-05T06:01:09.003Z,89.81
2018-09-05T06:02:08.979Z,89.62
2018-09-05T06:03:08.959Z,89.62
2018-09-05T06:04:08.956Z,89.62
2018-09-05T06:05:09.229Z,89.81
2018-09-05T06:07:08.856Z,89.81
2018-09-05T06:08:08.886Z,89.62
2018-09-05T06:10:08.854Z,89.43
2018-09-05T06:11:08.839Z,89.81
2018-09-05T06:12:09.215Z,89.81
2018-09-05T06:13:08.816Z,90.01
2018-09-05T06:14:08.799Z,90.01
2018-09-05T06:15:08.739Z,89.81
2018-09-05T06:16:08.775Z,90.01
2018-09-05T06:17:08.755Z,89.62
2018-09-05T06:18:09.045Z,89.72
2018-09-05T06:19:08.673Z,89.81
2018-09-05T06:20:08.709Z,89.91
2018-09-05T06:21:08.722Z,90.39
2018-09-05T06:22:08.680Z,90.01
2018-09-05T06:23:08.716Z,90.58
2018-09-05T06:24:09.028Z,90.58
2018-09-05T06:25:08.635Z,90.30
2018-09-05T06:26:08.620Z,90.15
2018-09-05T06:27:08.596Z,90.15
2018-09-05T06:28:08.544Z,90.44
2018-09-05T06:29:08.577Z,90.44
2018-09-05T06:30:08.915Z,90.82
2018-09-05T06:31:08.652Z,90.63
2018-09-05T06:32:08.496Z,90.91
2018-09-05T06:33:08.473Z,91.49
2018-09-05T06:34:08.514Z,92.16
2018-09-05T06:35:08.498Z,92.58
2018-09-05T06:36:08.844Z,93.16
2018-09-05T06:37:08.502Z,93.16
2018-09-05T06:38:08.739Z,93.26
2018-09-05T06:39:08.500Z,93.26
2018-09-05T06:40:08.434Z,93.07
2018-09-05T06:41:08.407Z,93.64
2018-09-05T06:42:08.397Z,94.12
2018-09-05T06:43:08.683Z,93.93
2018-09-05T06:44:08.343Z,93.74
2018-09-05T06:45:08.463Z,94.31
2018-09-05T06:46:08.286Z,94.21
2018-09-05T06:47:08.329Z,94.79
2018-09-05T06:48:08.306Z,94.79
2018-09-05T06:49:08.348Z,95.56
2018-09-05T06:50:08.683Z,95.84
2018-09-05T06:51:08.281Z,95.94
2018-09-05T06:54:08.178Z,96.66
2018-09-05T06:55:08.267Z,96.70
2018-09-05T06:56:08.205Z,96.66
2018-09-05T06:57:08.583Z,96.99
2018-09-05T06:59:08.162Z,97.33
2018-09-05T07:00:08.096Z,97.33
2018-09-05T07:01:08.136Z,97.23
2018-09-05T07:02:08.120Z,97.33
2018-09-05T07:03:08.055Z,97.04
2018-09-05T07:04:08.400Z,97.23
2018-09-05T07:05:08.033Z,97.23
2018-09-05T07:06:08.008Z,97.23
2018-09-05T07:07:08.062Z,97.04
2018-09-05T07:08:08.084Z,96.66
2018-09-05T07:09:08.023Z,97.04
2018-09-05T07:10:08.037Z,97.14
2018-09-05T07:11:08.308Z,96.47
2018-09-05T07:12:07.943Z,96.66
2018-09-05T07:13:07.922Z,96.66
2018-09-05T07:14:07.986Z,96.84
2018-09-05T07:15:07.944Z,95.98
2018-09-05T07:16:07.988Z,96.18
2018-09-05T07:17:07.869Z,96.37
2018-09-05T07:18:08.199Z,96.32
2018-09-05T07:19:07.893Z,96.51
2018-09-05T07:20:07.929Z,96.51
2018-09-05T07:21:07.821Z,96.80
2018-09-05T07:22:07.931Z,96.80
2018-09-05T07:23:07.814Z,96.61
2018-09-05T07:24:08.126Z,96.03
2018-09-05T07:25:20.541Z,96.03
2018-09-05T07:26:08.107Z,95.84
2018-09-05T07:27:07.787Z,95.94
2018-09-05T07:28:07.718Z,95.84
2018-09-05T07:29:07.753Z,96.27
2018-09-05T07:30:08.352Z,96.66
2018-09-05T07:31:07.747Z,96.75
2018-09-05T07:33:07.705Z,97.14
2018-09-05T07:34:07.688Z,97.33
2018-09-05T07:35:07.633Z,97.81
2018-09-05T07:36:07.962Z,98.10
2018-09-05T07:37:07.670Z,98.48
2018-09-05T07:38:07.637Z,98.19
2018-09-05T07:39:07.625Z,98.19
2018-09-05T07:40:07.610Z,98.91
2018-09-05T07:41:07.602Z,99.20
2018-09-05T07:42:07.887Z,99.44
2018-09-05T07:43:07.589Z,99.01
2018-09-05T07:44:07.575Z,99.58
2018-09-05T07:46:07.549Z,99.49
2018-09-05T07:47:07.526Z,99.20
2018-09-05T07:48:07.810Z,99.58
2018-09-05T07:49:07.655Z,99.96
2018-09-05T07:50:07.435Z,99.96
2018-09-05T07:51:07.526Z,99.92
2018-09-05T07:52:07.486Z,99.15
2018-09-05T07:53:07.456Z,99.92
2018-09-05T07:54:07.740Z,99.99
2018-09-05T07:56:07.361Z,99.99
2018-09-05T07:57:07.435Z,99.82
2018-09-05T07:58:07.498Z,99.99
2018-09-05T07:59:07.381Z,99.82
2018-09-05T08:00:07.662Z,99.82
2018-09-05T08:01:07.351Z,99.92
2018-09-05T08:02:07.301Z,99.99
2018-09-05T08:03:07.337Z,99.99
2018-09-05T08:04:08.152Z,99.92
2018-09-05T08:06:07.587Z,99.78
2018-09-05T08:07:07.283Z,99.40
2018-09-05T08:08:07.215Z,99.49
2018-09-05T08:09:07.307Z,99.99
2018-09-05T08:10:07.256Z,99.99
2018-09-05T08:11:07.246Z,99.99
2018-09-05T08:12:07.220Z,99.87
2018-09-05T08:13:08.184Z,99.49
2018-09-05T08:14:07.150Z,99.58
2018-09-05T08:16:07.180Z,99.99
2018-09-05T08:17:07.114Z,99.10
2018-09-05T08:18:07.170Z,99.20
2018-09-05T08:19:07.132Z,99.68
2018-09-05T08:20:07.432Z,99.97
2018-09-05T08:21:07.112Z,99.30
2018-09-05T08:22:07.054Z,99.40
2018-09-05T08:23:07.082Z,99.10
2018-09-05T08:24:07.090Z,99.20
2018-09-05T08:25:07.074Z,98.91
2018-09-05T08:26:07.054Z,98.72
2018-09-05T08:27:07.355Z,99.78
2018-09-05T08:28:07.047Z,99.87
2018-09-05T08:29:07.044Z,99.78
2018-09-05T08:30:07.162Z,99.49
2018-09-05T08:31:06.992Z,99.83
2018-09-05T08:32:07.023Z,99.99
2018-09-05T08:33:06.931Z,99.99
2018-09-05T08:34:07.262Z,99.99
2018-09-05T08:35:07.039Z,99.99
2018-09-05T08:36:07.064Z,99.99
2018-09-05T08:37:07.124Z,99.99
2018-09-05T08:38:07.046Z,99.99
2018-09-05T08:39:06.904Z,99.99
2018-09-05T08:40:06.890Z,99.99
2018-09-05T08:42:06.845Z,99.99
2018-09-05T08:43:06.854Z,99.99
2018-09-05T08:44:06.908Z,99.99
2018-09-05T08:46:07.030Z,99.99
2018-09-05T08:47:06.810Z,99.99
2018-09-05T08:48:07.109Z,99.99
2018-09-05T08:49:06.729Z,99.99
2018-09-05T08:50:06.767Z,99.99
2018-09-05T08:51:06.765Z,99.99
2018-09-05T08:52:06.757Z,99.99
2018-09-05T08:53:06.741Z,99.99
2018-09-05T08:54:06.679Z,99.99
2018-09-05T08:55:07.121Z,99.99
2018-09-05T08:56:06.653Z,99.99
2018-09-05T08:57:06.721Z,99.99
2018-09-05T08:58:06.671Z,99.99
2018-09-05T09:00:06.663Z,99.99
2018-09-05T09:01:06.669Z,99.99
2018-09-05T09:02:07.352Z,99.99
2018-09-05T09:03:06.678Z,99.99
2018-09-05T09:04:06.712Z,99.99
2018-09-05T09:05:06.640Z,99.99
2018-09-05T09:06:06.625Z,99.99
2018-09-05T09:07:06.611Z,99.99
2018-09-05T09:10:06.633Z,99.99
2018-09-05T09:11:06.584Z,99.99
2018-09-05T09:12:06.675Z,99.99
2018-09-05T09:14:06.512Z,99.99
2018-09-05T09:15:06.791Z,99.99
2018-09-05T09:16:06.515Z,99.99
2018-09-05T09:17:06.474Z,99.99
2018-09-05T09:18:07.176Z,99.99
2018-09-05T09:19:06.436Z,99.99
2018-09-05T09:20:06.382Z,99.99
2018-09-05T09:21:06.715Z,99.99
2018-09-05T09:22:06.400Z,99.99
2018-09-05T09:23:06.397Z,99.99
2018-09-05T09:24:06.381Z,99.99
2018-09-05T09:25:06.326Z,99.99
2018-09-05T09:26:06.464Z,99.99
2018-09-05T09:27:06.656Z,99.99
2018-09-05T09:28:06.539Z,99.99
2018-09-05T09:29:06.331Z,99.99
2018-09-05T09:30:06.340Z,99.99
2018-09-05T09:31:06.310Z,99.99
2018-09-05T09:32:06.300Z,99.99
2018-09-05T09:33:06.586Z,99.99
2018-09-05T09:34:06.275Z,99.99
2018-09-05T09:35:06.268Z,99.99
2018-09-05T09:36:06.259Z,99.84
2018-09-05T09:37:06.247Z,99.35
2018-09-05T09:40:06.246Z,99.99
2018-09-05T09:41:06.303Z,99.55
2018-09-05T09:42:06.193Z,99.99
2018-09-05T09:43:06.183Z,99.99
2018-09-05T09:44:06.169Z,99.35
2018-09-05T09:45:07.200Z,99.93
2018-09-05T09:46:06.452Z,99.99
2018-09-05T09:47:06.090Z,99.79
2018-09-05T09:48:06.087Z,99.50
2018-09-05T09:49:06.223Z,99.88
2018-09-05T09:50:06.170Z,99.99
2018-09-05T09:51:06.130Z,99.99
2018-09-05T09:52:06.045Z,99.99
2018-09-05T09:53:06.398Z,99.64
2018-09-05T09:54:06.069Z,99.99
2018-09-05T09:55:06.112Z,99.84
2018-09-05T09:56:06.066Z,99.84
2018-09-05T09:57:06.079Z,98.15
2018-09-05T09:58:06.044Z,97.42
2018-09-05T09:59:06.057Z,96.66
2018-09-05T10:00:06.311Z,95.20
2018-09-05T10:01:06.103Z,92.69
2018-09-05T10:02:06.053Z,92.35
2018-09-05T10:03:05.931Z,92.40
2018-09-05T10:04:06.199Z,88.81
2018-09-05T10:05:05.964Z,90.02
2018-09-05T10:06:05.955Z,89.44
2018-09-05T10:07:06.278Z,88.57
2018-09-05T10:09:05.928Z,89.59
2018-09-05T10:10:06.197Z,87.79
2018-09-05T10:11:05.932Z,86.77
2018-09-05T10:12:05.967Z,84.45
2018-09-05T10:13:05.901Z,83.52
2018-09-05T10:14:06.205Z,81.68
2018-09-05T10:15:05.888Z,81.93
2018-09-05T10:16:05.874Z,82.57
2018-09-05T10:17:05.932Z,82.37
2018-09-05T10:18:05.807Z,85.18
2018-09-05T10:19:05.825Z,87.07
2018-09-05T10:20:05.853Z,85.33
2018-09-05T10:21:06.206Z,89.35
2018-09-05T10:22:05.828Z,90.66
2018-09-05T10:23:05.822Z,89.84
2018-09-05T10:24:05.765Z,92.45
2018-09-05T10:25:05.820Z,93.66
2018-09-05T10:26:05.807Z,94.57
2018-09-05T10:27:06.148Z,92.01
2018-09-05T10:28:06.092Z,89.35
2018-09-05T10:29:05.738Z,90.41
2018-09-05T10:30:05.739Z,92.59
2018-09-05T10:31:05.767Z,90.91
2018-09-05T10:32:05.757Z,91.24
2018-09-05T10:33:05.749Z,90.85
2018-09-05T10:35:06.076Z,92.83
2018-09-05T10:36:07.011Z,92.30
2018-09-05T10:37:05.676Z,91.33
2018-09-05T10:38:05.669Z,93.08
2018-09-05T10:39:05.705Z,91.38
2018-09-05T10:40:05.699Z,89.63
2018-09-05T10:41:05.989Z,85.18
2018-09-05T10:42:05.729Z,85.41
2018-09-05T10:43:05.676Z,83.23
2018-09-05T10:44:05.749Z,79.35
2018-09-05T10:45:05.668Z,82.20
2018-09-05T10:46:05.666Z,84.05
2018-09-05T10:48:06.015Z,84.69
2018-09-05T10:49:05.880Z,87.90
2018-09-05T10:50:05.578Z,90.17
2018-09-05T10:51:05.639Z,90.42
2018-09-05T10:52:05.572Z,92.65
2018-09-05T10:53:05.759Z,92.93
2018-09-05T10:55:05.995Z,92.98
2018-09-05T10:56:05.587Z,92.69
2018-09-05T10:57:05.525Z,93.47
2018-09-05T10:58:05.548Z,93.80
2018-09-05T10:59:05.560Z,94.87
2018-09-05T11:00:05.603Z,94.77
2018-09-05T11:01:05.851Z,93.71
2018-09-05T11:03:05.540Z,90.56
2018-09-05T11:04:05.567Z,87.79
2018-09-05T11:06:05.562Z,86.49
2018-09-05T11:07:05.500Z,88.19
2018-09-05T11:08:05.806Z,86.78
2018-09-05T11:09:05.490Z,85.96
2018-09-05T11:10:05.478Z,84.35
2018-09-05T11:11:05.470Z,85.31
2018-09-05T11:12:05.534Z,85.08
2018-09-05T11:13:05.523Z,87.70
2018-09-05T11:14:05.751Z,84.64
2018-09-05T11:16:05.990Z,80.26
2018-09-05T11:17:05.441Z,77.26
2018-09-05T11:18:06.439Z,76.91
2018-09-05T11:19:05.434Z,75.94
2018-09-05T11:20:05.605Z,74.91
2018-09-05T11:21:05.763Z,73.67
2018-09-05T11:22:05.422Z,76.97
2018-09-05T11:23:05.408Z,78.33
2018-09-05T11:24:05.383Z,78.17
2018-09-05T11:25:05.374Z,75.07
2018-09-05T11:26:05.360Z,73.26
2018-09-05T11:27:05.322Z,74.81
2018-09-05T11:28:06.737Z,72.49
2018-09-05T11:29:05.384Z,74.23
2018-09-05T11:30:05.336Z,72.97
2018-09-05T11:31:05.596Z,70.15
2018-09-05T11:32:05.660Z,71.77
2018-09-05T11:33:07.419Z,74.04
2018-09-05T11:34:05.771Z,72.09
2018-09-05T11:35:05.831Z,71.84
2018-09-05T11:36:05.304Z,71.48
2018-09-05T11:37:05.473Z,69.54
2018-09-05T11:38:05.242Z,69.19
2018-09-05T11:39:05.239Z,66.08
2018-09-05T11:40:05.235Z,68.80
2018-09-05T11:41:05.284Z,66.27
2018-09-05T11:42:05.612Z,68.35
2018-09-05T11:43:05.391Z,70.73
2018-09-05T11:44:05.527Z,70.09
2018-09-05T11:46:05.578Z,69.38
2018-09-05T11:47:05.559Z,68.41
2018-09-05T11:48:20.173Z,64.53
2018-09-05T11:49:05.600Z,62.94
2018-09-05T11:50:05.190Z,63.62
2018-09-05T11:51:05.189Z,65.72
2018-09-05T11:52:05.183Z,66.17
2018-09-05T11:53:06.547Z,64.62
2018-09-05T11:54:05.225Z,63.55
2018-09-05T11:55:07.239Z,63.75
2018-09-05T11:56:11.142Z,63.87
2018-09-05T11:57:11.135Z,63.78
2018-09-05T11:59:05.424Z,63.68
2018-09-05T12:00:05.203Z,63.52
2018-09-05T12:01:05.208Z,62.54
2018-09-05T12:02:05.212Z,62.45
2018-09-05T12:04:05.494Z,62.23
2018-09-05T12:05:05.342Z,64.20
2018-09-05T12:06:05.467Z,62.45
2018-09-05T12:07:05.168Z,60.70
2018-09-05T12:08:05.169Z,62.06
2018-09-05T12:09:05.116Z,62.35
2018-09-05T12:10:05.112Z,61.38
2018-09-05T12:11:05.458Z,63.32
2018-09-05T12:12:05.208Z,61.51
2018-09-05T12:13:05.158Z,60.82
2018-09-05T12:14:05.159Z,60.53
2018-09-05T12:15:06.106Z,61.83
2018-09-05T12:18:05.447Z,58.22
2018-09-05T12:19:05.137Z,59.39
2018-09-05T12:20:05.141Z,59.98
2018-09-05T12:21:05.187Z,59.78
2018-09-05T12:22:05.145Z,60.27
2018-09-05T12:23:05.070Z,59.52
2018-09-05T12:24:06.124Z,60.39
2018-09-05T12:25:05.739Z,58.45
2018-09-05T12:26:05.943Z,57.96
2018-09-05T12:28:05.224Z,59.03
2018-09-05T12:29:05.064Z,60.05
2018-09-05T12:30:05.408Z,60.63
2018-09-05T12:31:05.055Z,60.75
2018-09-05T12:32:05.155Z,56.21
2018-09-05T12:33:05.306Z,55.46
2018-09-05T12:34:06.169Z,56.52
2018-09-05T12:35:05.379Z,56.62
2018-09-05T12:36:05.607Z,55.85
2018-09-05T12:37:05.284Z,54.90
2018-09-05T12:38:05.220Z,55.09
2018-09-05T12:39:05.096Z,54.38
2018-09-05T12:40:05.027Z,56.43
2018-09-05T12:41:05.026Z,55.85
2018-09-05T12:42:05.376Z,57.63
2018-09-05T12:43:05.072Z,57.53
2018-09-05T12:44:05.068Z,57.34
2018-09-05T12:45:05.070Z,58.02
2018-09-05T12:46:05.080Z,56.10
2018-09-05T12:47:05.070Z,55.09
2018-09-05T12:48:05.356Z,55.80
2018-09-05T12:49:05.008Z,55.90
2018-09-05T12:50:05.104Z,55.22
2018-09-05T12:51:05.054Z,54.53
2018-09-05T12:52:05.051Z,53.27
2018-09-05T12:53:05.106Z,53.44
2018-09-05T12:54:05.673Z,54.99
2018-09-05T12:55:05.156Z,54.11
2018-09-05T12:56:05.125Z,53.36
2018-09-05T12:57:05.200Z,53.85
2018-09-05T12:58:05.238Z,53.97
2018-09-05T12:59:04.991Z,51.61
2018-09-05T13:00:04.988Z,52.51
2018-09-05T13:01:05.329Z,53.56
2018-09-05T13:02:05.176Z,53.95
2018-09-05T13:03:05.132Z,53.05
2018-09-05T13:04:05.082Z,53.95
2018-09-05T13:05:05.015Z,53.75
2018-09-05T13:06:04.968Z,53.75
2018-09-05T13:07:05.022Z,53.83
2018-09-05T13:08:05.316Z,53.75
2018-09-05T13:09:05.019Z,54.05
2018-09-05T13:12:04.961Z,53.75
2018-09-05T13:13:05.009Z,53.75
2018-09-05T13:14:05.018Z,53.56
2018-09-05T13:15:05.311Z,52.58
2018-09-05T13:16:05.001Z,54.24
2018-09-05T13:17:05.001Z,53.58
2018-09-05T13:18:04.965Z,52.80
2018-09-05T13:19:05.196Z,54.38
2018-09-05T13:20:05.002Z,54.97
2018-09-05T13:21:05.046Z,55.86
2018-09-05T13:22:05.291Z,57.26
2018-09-05T13:24:04.930Z,59.57
2018-09-05T13:25:04.932Z,58.43
2018-09-05T13:27:05.311Z,55.99
2018-09-05T13:28:05.225Z,57.22
2018-09-05T13:29:06.571Z,57.32
2018-09-05T13:30:06.050Z,57.84
2018-09-05T13:31:05.333Z,56.89
2018-09-05T13:32:04.910Z,56.43
2018-09-05T13:33:04.969Z,55.16
2018-09-05T13:34:04.956Z,53.80
2018-09-05T13:35:04.903Z,53.38
2018-09-05T13:37:04.954Z,55.36
2018-09-05T13:38:05.127Z,53.89
2018-09-05T13:39:04.988Z,54.09
2018-09-05T13:40:04.883Z,55.13
2018-09-05T13:41:04.883Z,55.40
2018-09-05T13:42:04.887Z,57.79
2018-09-05T13:43:05.232Z,56.43
2018-09-05T13:45:05.668Z,55.62
2018-09-05T13:47:05.539Z,59.67
2018-09-05T13:48:06.178Z,60.77
2018-09-05T13:49:05.145Z,60.11
2018-09-05T13:50:06.024Z,59.07
2018-09-05T13:51:04.850Z,56.96
2018-09-05T13:52:05.314Z,58.35
2018-09-05T13:53:04.854Z,56.01
2018-09-05T13:54:04.937Z,56.72
2018-09-05T13:55:04.898Z,56.16
2018-09-05T13:56:05.184Z,56.30
2018-09-05T13:57:04.834Z,58.29
2018-09-05T13:58:04.835Z,60.86
2018-09-05T13:59:04.873Z,60.99